Princeton, Michigan
Current Conditions -  °F | °C
As of 4:37 AM on Friday 24 Oct 2014 (Local Time) from KSAW Reporting Station
Haze Haze  
Wind Chill: 41°   Ceiling: 100
Heat Index: 43°   Visibility: 0.75mi
Dew Point: 42°   Wind: 5mph
Humidity: 95%   Direction: 260°W
Pressure: 29.97"   Gusts: NA
Location:  46.2832°N, 87.4701°W
Report Text: KSAW 240837Z AUTO 26004KT 3/4SM BR OVC001 06/06 A2997 RMK AO2 T00630056
Loading
Personal Weather Stations






























Interactive Weather Map
Tropical Storm Tracking
New forecast layout! Learn more

10-Day Weather Forecast

Advertisements
Track Severe Weather on mobile